Terminal Aerodrome Forecast
Issued by NWS

Home | Current Version | Previous Version | Text Only | Print | Product List | Glossary On
Versions: 1 2 3 4 5 6 7 8 9 10 11 12 13
000
FTUS44 KOUN 040530
TAFCSM
TAF
KCSM 040530Z 0406/0506 08006KT 4SM -RADZ BR OVC003
     FM041100 35007KT 1/2SM FG OVC003
     FM041400 35009KT 3SM BR BKN007 OVC015
     FM041600 35010KT P6SM BKN030
     FM041800 36010KT P6SM SCT030
     FM050000 VRB05KT P6SM SKC=

USA.gov is the U.S. government's official web portal to all federal, state and local government web resources and services.